Time;durP1;ratioP1;P1;durP2;ratioP2;P2;SDS_P1;SDS_P2;PMS_P1;PMS_P2;Temp;Humidity;BMP_temperature;BMP_pressure;BME280_temperature;BME280_humidity;BME280_pressure;Samples;Min_cycle;Max_cycle;Signal;HPM_P1;HPM_P2
2022/08/06 05:35:19;;;;;;;12.60;11.33;;;;;;;20.72;91.01;98202.63;1872920;75;21903;-87
2022/08/06 05:37:45;;;;;;;14.05;11.55;;;;;;;20.77;90.09;98212.06;1851671;75;21092;-82
2022/08/06 05:40:11;;;;;;;16.32;11.73;;;;;;;20.81;90.09;98221.23;1846612;77;21258;-82
2022/08/06 05:42:37;;;;;;;15.95;12.50;;;;;;;20.84;89.87;98218.36;1840578;77;20933;-82
2022/08/06 05:45:04;;;;;;;16.07;12.65;;;;;;;20.86;89.32;98221.59;1779260;80;21668;-86
2022/08/06 05:47:34;;;;;;;16.20;11.70;;;;;;;20.90;88.76;98229.39;1779084;80;21101;-86
2022/08/06 05:50:13;;;;;;;17.80;12.70;;;;;;;20.94;88.37;98235.04;1804733;79;21539;-87
2022/08/06 05:52:57;;;;;;;14.93;12.50;;;;;;;20.98;88.06;98240.08;1782721;79;21143;-86
2022/08/06 05:55:46;;;;;;;14.65;12.93;;;;;;;21.01;87.47;98239.38;1842237;77;20931;-86
2022/08/06 05:58:15;;;;;;;15.53;12.65;;;;;;;21.04;87.80;98246.41;1841466;77;21477;-83
2022/08/06 06:00:41;;;;;;;13.32;11.83;;;;;;;21.09;87.31;98248.11;1797941;79;21010;-83
2022/08/06 06:03:11;;;;;;;16.67;11.48;;;;;;;21.12;86.56;98253.77;1795797;79;21623;-86
2022/08/06 06:05:37;;;;;;;13.28;11.68;;;;;;;21.17;86.62;98254.09;1754229;80;21810;-86
2022/08/06 06:08:06;;;;;;;13.20;11.83;;;;;;;21.19;86.40;98257.88;1824397;78;20862;-82
2022/08/06 06:10:33;;;;;;;13.68;11.97;;;;;;;21.20;86.39;98257.56;1830391;78;20984;-82
2022/08/06 06:13:01;;;;;;;13.13;11.57;;;;;;;21.23;85.82;98260.19;1830825;78;21636;-83
2022/08/06 06:15:27;;;;;;;14.47;11.25;;;;;;;21.25;86.19;98270.28;1831054;78;20987;-82
2022/08/06 06:18:08;;;;;;;18.57;10.90;;;;;;;21.30;85.51;98267.34;1830089;78;21114;-87
2022/08/06 06:20:51;;;;;;;11.57;10.25;;;;;;;21.27;85.68;98267.44;1826441;77;22070;-86
2022/08/06 06:23:40;;;;;;;13.00;11.05;;;;;;;21.24;85.78;98271.44;1828466;78;21037;-83
2022/08/06 06:26:18;;;;;;;13.65;10.28;;;;;;;21.23;85.99;98272.02;1824522;78;21030;-85
2022/08/06 06:29:21;;;;;;;14.10;10.95;;;;;;;21.30;85.85;98275.04;1792132;78;21066;-86
2022/08/06 06:32:14;;;;;;;11.38;9.13;;;;;;;21.37;85.78;98283.55;1823861;78;21082;-83
2022/08/06 06:35:12;;;;;;;9.45;8.48;;;;;;;21.36;85.66;98283.31;1824711;77;20992;-86
2022/08/06 06:38:23;;;;;;;12.63;10.60;;;;;;;21.40;85.61;98285.60;1823185;78;21145;-86
2022/08/06 06:40:57;;;;;;;10.63;8.08;;;;;;;21.42;85.60;98292.14;1824041;78;21488;-87
2022/08/06 06:43:40;;;;;;;8.20;7.40;;;;;;;21.35;85.91;98289.15;1733202;79;21042;-83
2022/08/06 06:46:19;;;;;;;8.68;7.22;;;;;;;21.41;85.58;98293.30;1754141;81;21132;-83
2022/08/06 06:48:54;;;;;;;26.87;19.42;;;;;;;21.40;86.12;98291.11;1780867;79;21279;-86
2022/08/06 06:51:31;;;;;;;15.20;12.78;;;;;;;21.45;85.75;98303.88;1736061;80;21164;-83
2022/08/06 06:53:58;;;;;;;17.30;13.35;;;;;;;21.46;85.86;98299.97;1749498;80;20973;-87
2022/08/06 06:56:31;;;;;;;10.82;9.38;;;;;;;21.45;85.77;98303.88;1785713;80;21048;-87
2022/08/06 06:59:04;;;;;;;11.10;8.10;;;;;;;21.44;85.72;98305.58;1779502;80;21097;-83
2022/08/06 07:01:33;;;;;;;13.48;8.33;;;;;;;21.43;85.69;98313.62;1749585;81;21051;-86
2022/08/06 07:04:02;;;;;;;22.98;16.73;;;;;;;21.46;85.80;98316.51;1828077;78;21112;-83
2022/08/06 07:06:27;;;;;;;;;;;;;;;21.47;85.66;98320.88;1827192;77;20963;-83
2022/08/06 07:08:53;;;;;;;14.73;9.05;;;;;;;21.48;85.35;98328.56;1815888;77;20293;-85
2022/08/06 07:11:22;;;;;;;14.10;9.93;;;;;;;21.36;85.91;98337.06;1817102;76;21981;-86
2022/08/06 07:13:49;;;;;;;;;;;;;;;21.38;85.98;98338.89;1820376;76;21419;-87
2022/08/06 07:16:18;;;;;;;10.35;8.43;;;;;;;21.36;86.45;98346.70;1816928;76;20203;-87
2022/08/06 07:18:44;;;;;;;;;;;;;;;21.39;86.31;98347.97;1816339;76;21058;-86
2022/08/06 07:21:12;;;;;;;20.32;14.95;;;;;;;21.41;86.56;98344.28;1825215;78;20160;-83
2022/08/06 07:23:38;;;;;;;;;;;;;;;21.50;86.14;98352.45;1804588;77;21165;-86
2022/08/06 07:26:04;;;;;;;8.63;7.75;;;;;;;21.47;86.62;98362.22;1811982;78;20228;-87
2022/08/06 07:28:30;;;;;;;13.60;7.28;;;;;;;21.43;86.54;98368.17;1795765;78;21025;-86
2022/08/06 07:30:59;;;;;;;10.03;7.72;;;;;;;21.41;86.82;98370.47;1823244;78;20836;-87
2022/08/06 07:33:25;;;;;;;8.55;7.58;;;;;;;21.37;87.33;98373.70;1827298;78;21003;-83
2022/08/06 07:35:51;;;;;;;12.53;7.95;;;;;;;21.34;87.84;98371.61;1816804;77;20937;-83
2022/08/06 07:38:18;;;;;;;8.58;7.67;;;;;;;21.34;87.52;98365.52;1823435;76;21552;-83
2022/08/06 07:40:52;;;;;;;11.35;7.87;;;;;;;21.37;86.88;98366.23;1808259;76;20924;-86
2022/08/06 07:43:26;;;;;;;9.45;7.58;;;;;;;21.41;87.50;98373.23;1826800;76;21366;-83
2022/08/06 07:45:54;;;;;;;11.88;8.30;;;;;;;21.39;87.75;98379.09;1799805;78;20990;-82
2022/08/06 07:48:35;;;;;;;8.57;7.83;;;;;;;21.36;87.87;98382.54;1818871;77;20998;-83
2022/08/06 07:51:02;;;;;;;33.13;21.40;;;;;;;21.36;87.75;98383.92;1813272;77;20970;-86
2022/08/06 07:53:28;;;;;;;20.35;13.35;;;;;;;21.26;89.39;98387.05;1827966;76;21046;-86
2022/08/06 07:55:54;;;;;;;12.98;11.00;;;;;;;21.18;89.91;98392.66;1746545;76;21522;-86
2022/08/06 07:58:20;;;;;;;31.68;21.52;;;;;;;21.22;89.17;98389.47;1814751;76;21675;-83
2022/08/06 08:00:48;;;;;;;17.20;11.18;;;;;;;21.21;89.73;98394.75;1802204;76;21249;-83
2022/08/06 08:08:42;;;;;;;10.08;9.08;;;;;;;21.26;89.22;98402.21;1748519;80;21048;-86
2022/08/06 08:11:08;;;;;;;11.75;9.50;;;;;;;21.25;89.82;98402.56;1750975;80;20961;-83
2022/08/06 08:13:35;;;;;;;11.00;9.20;;;;;;;21.24;89.81;98399.57;1751373;79;21152;-83
2022/08/06 08:16:00;;;;;;;12.95;10.38;;;;;;;21.20;90.35;98404.97;1685997;81;20947;-86
2022/08/06 08:18:31;;;;;;;11.20;8.68;;;;;;;21.19;90.79;98404.71;1764058;79;21549;-83
2022/08/06 08:20:58;;;;;;;11.50;8.63;;;;;;;21.21;91.06;98409.91;1762587;81;20954;-86
2022/08/06 08:23:24;;;;;;;13.45;8.65;;;;;;;21.11;91.99;98409.20;1757871;81;21078;-87
2022/08/06 08:25:50;;;;;;;8.85;8.05;;;;;;;21.12;91.85;98410.00;1766261;79;21179;-86
2022/08/06 08:28:16;;;;;;;11.93;8.63;;;;;;;21.13;91.37;98411.61;1752946;81;20969;-87
2022/08/06 08:30:43;;;;;;;10.40;9.10;;;;;;;21.15;90.45;98412.64;1758771;80;20855;-86
2022/08/06 08:33:09;;;;;;;10.03;7.90;;;;;;;21.11;91.61;98415.28;1753951;79;21033;-86
2022/08/06 08:35:35;;;;;;;11.70;9.08;;;;;;;21.18;90.19;98418.84;1814509;76;21003;-83
2022/08/06 08:38:01;;;;;;;10.60;9.10;;;;;;;21.19;90.78;98425.38;1821335;76;21052;-82
2022/08/06 08:40:27;;;;;;;11.73;8.83;;;;;;;21.19;90.71;98433.64;1820441;76;20981;-83
2022/08/06 08:42:53;;;;;;;13.85;9.60;;;;;;;21.21;90.56;98434.70;1805524;78;21035;-84
2022/08/06 08:45:19;;;;;;;10.25;8.03;;;;;;;21.19;91.08;98438.35;1818408;76;20962;-83
2022/08/06 08:47:52;;;;;;;9.73;8.70;;;;;;;21.19;90.69;98438.35;1800323;78;21100;-83
2022/08/06 08:50:26;;;;;;;10.30;8.23;;;;;;;21.23;90.27;98441.48;1824633;77;21210;-83
2022/08/06 08:52:56;;;;;;;9.55;8.55;;;;;;;21.23;90.88;98448.95;1816496;78;21013;-86
2022/08/06 08:55:24;;;;;;;8.65;7.17;;;;;;;21.24;91.01;98449.98;1822898;78;21034;-83
2022/08/06 08:57:52;;;;;;;;;;;;;;;21.25;91.01;98448.83;1822689;78;21081;-86
2022/08/06 09:00:18;;;;;;;8.20;7.35;;;;;;;21.28;90.81;98448.20;1817927;78;20214;-86
2022/08/06 09:02:44;;;;;;;10.03;8.00;;;;;;;21.35;90.07;98449.00;1798427;78;21027;-86
2022/08/06 09:05:10;;;;;;;7.90;7.10;;;;;;;21.42;90.46;98445.70;1814429;76;21021;-87
2022/08/06 09:07:36;;;;;;;9.93;8.18;;;;;;;21.47;89.91;98445.49;1809600;78;20962;-86
2022/08/06 09:10:05;;;;;;;12.18;7.97;;;;;;;21.51;89.83;98447.21;1823855;76;20872;-82
2022/08/06 09:12:32;;;;;;;9.03;6.80;;;;;;;21.56;89.49;98450.34;1814324;76;21113;-87
2022/08/06 09:14:58;;;;;;;8.43;6.95;;;;;;;21.56;89.66;98455.85;1827866;77;21059;-83
2022/08/06 09:17:25;;;;;;;9.35;6.80;;;;;;;21.53;89.40;98453.18;1809458;78;22457;-83
2022/08/06 09:19:52;;;;;;;9.33;7.22;;;;;;;21.49;89.25;98456.41;1817239;78;21047;-83
2022/08/06 09:22:18;;;;;;;13.40;7.05;;;;;;;21.46;89.22;98452.96;1823679;78;20976;-86
2022/08/06 09:24:44;;;;;;;9.90;7.03;;;;;;;21.40;90.07;98456.49;1822913;77;21598;-83
2022/08/06 09:27:13;;;;;;;10.65;6.85;;;;;;;21.37;89.42;98450.88;1824020;77;21800;-83
2022/08/06 09:29:54;;;;;;;11.43;7.78;;;;;;;21.33;89.68;98459.57;1825961;77;21435;-86
2022/08/06 09:32:43;;;;;;;9.03;7.58;;;;;;;21.31;90.50;98462.67;1809616;77;21074;-86
2022/08/06 09:35:22;;;;;;;11.05;6.97;;;;;;;21.19;92.00;98463.95;1815055;76;21014;-85
2022/08/06 09:37:49;;;;;;;9.58;8.68;;;;;;;21.13;92.63;98456.48;1814756;78;21027;-83
2022/08/06 09:40:18;;;;;;;8.88;8.03;;;;;;;21.14;90.87;98462.81;1818792;77;21061;-86
2022/08/06 09:42:48;;;;;;;6.85;5.42;;;;;;;20.97;93.70;98481.67;1803675;78;21095;-87
2022/08/06 09:45:20;;;;;;;8.25;5.92;;;;;;;20.49;98.59;98487.11;1822875;78;23030;-86
2022/08/06 09:47:47;;;;;;;6.15;5.08;;;;;;;20.13;100.00;98484.05;1824676;76;21490;-83
2022/08/06 09:50:13;;;;;;;7.70;4.45;;;;;;;19.98;100.00;98488.15;1826506;76;21088;-87
2022/08/06 09:52:39;;;;;;;6.50;4.28;;;;;;;19.77;100.00;98490.02;1829038;77;21303;-87
2022/08/06 09:55:06;;;;;;;4.17;3.58;;;;;;;19.65;100.00;98498.94;1829789;78;20864;-83
2022/08/06 09:57:44;;;;;;;5.58;3.22;;;;;;;19.57;100.00;98497.02;1827022;77;21482;-87
2022/08/06 10:00:11;;;;;;;4.55;3.30;;;;;;;19.32;100.00;98503.59;1824826;78;21016;-86
2022/08/06 10:02:38;;;;;;;4.50;3.52;;;;;;;19.29;100.00;98505.60;1819755;78;20943;-83
2022/08/06 10:05:12;;;;;;;3.47;3.02;;;;;;;19.33;100.00;98509.33;1823608;78;21062;-86
2022/08/06 10:07:37;;;;;;;4.75;2.52;;;;;;;19.23;100.00;98512.41;1803960;76;21101;-83
2022/08/06 10:10:06;;;;;;;4.20;2.30;;;;;;;19.19;100.00;98514.18;1822916;78;21517;-85
2022/08/06 10:12:32;;;;;;;2.75;2.00;;;;;;;19.13;100.00;98523.14;1799990;78;20943;-85
2022/08/06 10:14:59;;;;;;;2.72;2.33;;;;;;;19.06;100.00;98522.03;1824628;76;21409;-83
2022/08/06 10:17:25;;;;;;;2.55;1.98;;;;;;;19.02;100.00;98521.05;1811739;76;21486;-83
2022/08/06 10:20:14;;;;;;;3.02;2.08;;;;;;;19.03;100.00;98519.91;1823351;78;21025;-83
2022/08/06 10:22:54;;;;;;;3.25;1.65;;;;;;;19.00;100.00;98523.31;1797908;78;21045;-83
2022/08/06 10:25:20;;;;;;;3.05;0.93;;;;;;;18.92;100.00;98524.13;1822492;76;21035;-84
2022/08/06 10:27:46;;;;;;;1.67;1.17;;;;;;;18.86;100.00;98536.62;1827949;78;21057;-85
2022/08/06 10:30:12;;;;;;;3.40;1.10;;;;;;;18.81;100.00;98534.05;1823930;78;21027;-86
2022/08/06 10:33:03;;;;;;;1.12;1.02;;;;;;;18.81;100.00;98536.80;1818595;77;21006;-85
2022/08/06 10:35:29;;;;;;;1.15;0.90;;;;;;;18.89;100.00;98536.56;1811428;76;21110;-84
2022/08/06 10:38:03;;;;;;;2.30;1.35;;;;;;;18.86;100.00;98544.86;1757929;80;21482;-85
2022/08/06 10:40:29;;;;;;;1.17;0.95;;;;;;;18.82;100.00;98542.52;1746134;81;21098;-84
2022/08/06 10:42:55;;;;;;;2.37;1.25;;;;;;;18.72;100.00;98548.33;1823974;78;21126;-83
2022/08/06 10:45:21;;;;;;;1.50;1.20;;;;;;;18.72;100.00;98552.44;1763616;78;20893;-84
2022/08/06 10:47:47;;;;;;;1.57;0.98;;;;;;;18.62;100.00;98558.18;1711421;80;20892;-85
2022/08/06 10:50:14;;;;;;;4.35;1.60;;;;;;;18.61;100.00;98557.38;1759693;79;20880;-85
2022/08/06 10:52:40;;;;;;;2.27;1.40;;;;;;;18.66;100.00;98560.58;1763415;81;21086;-85
2022/08/06 10:55:08;;;;;;;2.02;1.32;;;;;;;18.56;100.00;98564.40;1762951;81;21498;-85
2022/08/06 10:57:34;;;;;;;2.75;1.50;;;;;;;18.64;100.00;98566.12;1822338;78;20963;-85
2022/08/06 11:00:01;;;;;;;2.75;1.30;;;;;;;18.60;100.00;98570.85;1795963;78;21352;-85
2022/08/06 11:03:07;;;;;;;1.62;1.37;;;;;;;18.66;100.00;98569.38;1791820;79;21316;-84
2022/08/06 11:05:37;;;;;;;1.67;1.50;;;;;;;18.67;100.00;98573.17;1804859;78;21046;-83
2022/08/06 11:08:26;;;;;;;2.10;1.90;;;;;;;18.65;100.00;98573.22;1822684;78;21206;-85
2022/08/06 11:11:33;;;;;;;2.05;1.65;;;;;;;18.64;100.00;98582.59;1792573;77;21051;-83
2022/08/06 11:14:06;;;;;;;4.85;2.90;;;;;;;18.58;100.00;98581.34;1752014;80;21482;-85
2022/08/06 11:16:32;;;;;;;2.95;2.65;;;;;;;18.43;100.00;98584.52;1769108;80;20997;-83
2022/08/06 11:19:10;;;;;;;2.52;2.22;;;;;;;18.40;100.00;98579.67;1755353;79;21032;-85
2022/08/06 11:21:47;;;;;;;3.37;2.37;;;;;;;18.43;100.00;98585.89;1822805;78;21748;-84
2022/08/06 11:24:14;;;;;;;3.15;2.85;;;;;;;18.43;100.00;98588.63;1823653;77;21078;-83
2022/08/06 11:26:43;;;;;;;3.62;2.92;;;;;;;18.49;100.00;98589.31;1821659;78;21057;-84
2022/08/06 11:29:11;;;;;;;3.95;3.20;;;;;;;18.57;100.00;98583.05;1756696;81;20979;-83
2022/08/06 11:31:44;;;;;;;4.12;3.72;;;;;;;18.59;100.00;98587.64;1758389;81;21050;-85
2022/08/06 11:34:13;;;;;;;4.40;3.90;;;;;;;18.55;100.00;98585.30;1746002;80;21225;-83
2022/08/06 11:36:58;;;;;;;3.98;3.45;;;;;;;18.52;100.00;98581.23;1761943;80;21097;-85
2022/08/06 11:39:26;;;;;;;4.37;3.85;;;;;;;18.50;100.00;98588.98;1741207;81;21037;-83
2022/08/06 11:42:01;;;;;;;4.33;3.92;;;;;;;18.50;100.00;98586.24;1761217;80;20968;-84
2022/08/06 11:44:32;;;;;;;6.33;4.08;;;;;;;18.47;100.00;98593.75;1762264;80;21017;-84
2022/08/06 11:47:20;;;;;;;4.95;4.08;;;;;;;18.44;100.00;98597.11;1828030;78;21031;-83
2022/08/06 11:49:45;;;;;;;5.72;4.35;;;;;;;18.47;100.00;98597.06;1828800;77;21503;-85
2022/08/06 11:52:38;;;;;;;4.63;4.00;;;;;;;18.47;100.00;98599.80;1828866;78;21037;-85
2022/08/06 11:55:06;;;;;;;4.90;3.60;;;;;;;18.35;100.00;98599.02;1826699;78;21172;-85
2022/08/06 11:57:33;;;;;;;3.85;3.37;;;;;;;18.31;100.00;98600.78;1830024;78;21437;-85
2022/08/06 12:00:04;;;;;;;4.78;3.55;;;;;;;18.33;100.00;98608.13;1826223;78;21039;-85
2022/08/06 12:02:46;;;;;;;3.58;3.22;;;;;;;18.27;100.00;98608.01;1825266;78;21614;-84
2022/08/06 12:05:21;;;;;;;4.00;3.60;;;;;;;18.27;100.00;98610.19;1824879;78;21263;-84
2022/08/06 12:07:49;;;;;;;4.00;3.60;;;;;;;18.24;100.00;98609.45;1824571;78;21032;-85
2022/08/06 12:10:16;;;;;;;4.03;3.62;;;;;;;18.15;100.00;98607.23;1825190;78;21057;-83
2022/08/06 12:12:50;;;;;;;3.58;3.27;;;;;;;18.05;100.00;98613.00;1807371;78;21126;-84
2022/08/06 12:15:30;;;;;;;3.33;3.02;;;;;;;18.04;100.00;98614.13;1826424;78;21524;-85
2022/08/06 12:18:00;;;;;;;6.00;3.17;;;;;;;17.97;100.00;98616.50;1824382;77;21401;-83
2022/08/06 12:20:36;;;;;;;3.42;3.12;;;;;;;17.88;100.00;98617.01;1824645;78;21027;-85
2022/08/06 12:23:05;;;;;;;3.40;2.98;;;;;;;17.82;100.00;98619.05;1825350;77;21487;-84
2022/08/06 12:25:39;;;;;;;;;;;;;;;17.82;100.00;98618.25;1827491;78;21258;-85
2022/08/06 12:28:10;;;;;;;3.42;2.45;;;;;;;17.81;100.00;98620.18;1824027;78;20227;-85
2022/08/06 12:30:48;;;;;;;2.80;2.52;;;;;;;17.84;100.00;98618.17;1812376;78;21026;-86
2022/08/06 12:33:14;;;;;;;2.58;2.02;;;;;;;17.82;100.00;98621.80;1832167;78;20999;-85
2022/08/06 12:35:58;;;;;;;3.00;2.70;;;;;;;17.78;100.00;98619.45;1801527;78;21153;-85
2022/08/06 12:38:31;;;;;;;2.60;2.40;;;;;;;17.88;100.00;98615.08;1824326;78;21114;-85
2022/08/06 12:41:06;;;;;;;2.72;2.50;;;;;;;17.87;100.00;98620.31;1822713;78;20983;-85
2022/08/06 12:43:33;;;;;;;4.05;2.87;;;;;;;17.94;100.00;98623.39;1823373;78;20995;-83
2022/08/06 12:46:03;;;;;;;2.77;2.33;;;;;;;17.95;100.00;98621.49;1758249;81;20999;-85
2022/08/06 12:48:29;;;;;;;2.35;2.15;;;;;;;17.95;100.00;98624.23;1755794;81;21069;-85
2022/08/06 12:51:13;;;;;;;3.12;2.25;;;;;;;17.94;100.00;98623.39;1760266;81;21043;-83
2022/08/06 12:53:49;;;;;;;2.62;2.22;;;;;;;17.89;100.00;98621.36;1787409;79;21044;-85
2022/08/06 12:56:17;;;;;;;2.25;1.98;;;;;;;17.85;100.00;98624.47;1821971;78;21022;-85
2022/08/06 12:58:43;;;;;;;3.17;2.30;;;;;;;17.74;100.00;98627.47;1822269;78;21533;-83
2022/08/06 13:01:13;;;;;;;2.50;2.30;;;;;;;17.64;100.00;98624.95;1753017;81;21010;-84
2022/08/06 13:03:42;;;;;;;2.92;2.62;;;;;;;17.64;100.00;98626.31;1754432;81;21287;-85
2022/08/06 13:06:08;;;;;;;;;;;;;;;17.65;100.00;98627.94;1761461;78;21095;-83
2022/08/06 13:08:34;;;;;;;3.08;2.75;;;;;;;17.64;100.00;98634.54;1764361;81;20259;-84
2022/08/06 13:11:00;;;;;;;2.55;2.35;;;;;;;17.60;100.00;98631.34;1759760;81;20864;-85
2022/08/06 13:13:50;;;;;;;2.80;2.60;;;;;;;17.57;100.00;98631.98;1762434;81;21116;-83
2022/08/06 13:16:16;;;;;;;3.00;2.52;;;;;;;17.55;100.00;98630.92;1732698;81;21247;-83
2022/08/06 13:18:45;;;;;;;3.20;2.90;;;;;;;17.58;100.00;98632.22;1823015;78;20964;-82
2022/08/06 13:21:20;;;;;;;3.02;2.70;;;;;;;17.66;100.00;98640.52;1796553;78;21092;-83
2022/08/06 13:23:52;;;;;;;2.70;2.45;;;;;;;17.71;100.00;98635.52;1823568;77;21550;-85
2022/08/06 13:26:21;;;;;;;2.10;1.80;;;;;;;17.75;100.00;98635.94;1824643;78;21046;-82
2022/08/06 13:29:19;;;;;;;2.95;1.80;;;;;;;17.65;100.00;98643.01;1824218;78;21284;-84
2022/08/06 13:31:46;;;;;;;4.33;2.00;;;;;;;17.46;100.00;98634.97;1824680;78;21059;-85
2022/08/06 13:34:15;;;;;;;3.47;2.30;;;;;;;17.45;100.00;98642.94;1825080;78;21743;-84
2022/08/06 13:36:47;;;;;;;5.40;2.22;;;;;;;17.44;100.00;98640.52;1824389;77;21114;-84
2022/08/06 13:39:28;;;;;;;3.12;1.87;;;;;;;17.44;100.00;98643.25;1823317;77;22286;-84
2022/08/06 13:42:08;;;;;;;2.30;1.98;;;;;;;17.38;100.00;98652.14;1822558;78;21045;-83
2022/08/06 13:44:40;;;;;;;3.05;2.15;;;;;;;17.36;100.00;98637.14;1821577;78;21447;-84
2022/08/06 13:47:07;;;;;;;2.95;2.33;;;;;;;17.22;100.00;98647.31;1822466;78;21165;-82
2022/08/06 13:49:33;;;;;;;3.83;3.02;;;;;;;16.96;100.00;98645.68;1824528;78;21023;-85
2022/08/06 13:52:00;;;;;;;3.58;2.95;;;;;;;16.88;100.00;98644.47;1752766;81;21077;-83
2022/08/06 13:54:27;;;;;;;4.70;4.03;;;;;;;16.83;100.00;98641.27;1753136;81;21196;-83
2022/08/06 13:56:54;;;;;;;4.28;3.87;;;;;;;16.79;100.00;98636.72;1758821;81;21042;-83
2022/08/06 13:59:21;;;;;;;6.85;3.87;;;;;;;16.77;100.00;98634.30;1765528;81;21069;-82
2022/08/06 14:01:48;;;;;;;4.87;3.90;;;;;;;16.65;100.00;98639.42;1762116;81;21595;-83
2022/08/06 14:04:17;;;;;;;6.17;4.67;;;;;;;16.72;100.00;98634.39;1824052;78;21073;-84
2022/08/06 14:06:42;;;;;;;;;;;;;;;16.77;100.00;98641.70;1829154;77;22085;-82
2022/08/06 14:09:08;;;;;;;6.70;4.83;;;;;;;16.73;100.00;98637.37;1829880;78;21313;-83
2022/08/06 14:11:34;;;;;;;8.48;5.37;;;;;;;16.59;100.00;98636.00;1830140;77;22410;-85
2022/08/06 14:14:00;;;;;;;9.08;6.22;;;;;;;16.60;100.00;98632.14;1804117;78;21505;-85
2022/08/06 14:16:26;;;;;;;1065.28;489.82;;;;;;;16.59;100.00;98631.09;1822509;78;20867;-83
2022/08/06 14:18:53;;;;;;;1158.00;573.10;;;;;;;16.58;100.00;98641.78;1823266;78;21387;-82
2022/08/06 14:21:19;;;;;;;175.00;104.53;;;;;;;16.54;100.00;98640.19;1824929;78;21063;-83
2022/08/06 14:23:45;;;;;;;1999.90;912.67;;;;;;;16.59;100.00;98635.19;1800851;78;20968;-82
2022/08/06 14:26:11;;;;;;;1282.83;565.65;;;;;;;16.58;100.00;98642.59;1754829;81;20870;-82
2022/08/06 14:28:37;;;;;;;379.45;223.78;;;;;;;16.61;100.00;98632.39;1771439;80;21062;-83
2022/08/06 14:31:03;;;;;;;246.18;138.30;;;;;;;16.67;100.00;98641.88;1750888;81;21274;-83
2022/08/06 14:33:29;;;;;;;110.83;66.77;;;;;;;16.62;100.00;98638.67;1719892;81;21077;-85
2022/08/06 14:35:55;;;;;;;114.77;68.22;;;;;;;16.61;100.00;98649.37;1757056;79;21161;-84
2022/08/06 14:38:21;;;;;;;222.48;116.03;;;;;;;16.62;100.00;98647.69;1767181;81;21422;-83
2022/08/06 14:46:16;;;;;;;27.25;16.77;;;;;;;16.79;100.00;98652.59;1758413;81;21070;-85
2022/08/06 14:48:41;;;;;;;38.38;16.93;;;;;;;16.82;100.00;98651.97;1758135;80;20962;-83
2022/08/06 14:51:08;;;;;;;75.83;40.17;;;;;;;16.75;100.00;98651.59;1759473;80;20931;-84
2022/08/06 14:53:34;;;;;;;83.65;40.30;;;;;;;16.73;100.00;98649.69;1759667;81;21105;-84
2022/08/06 14:56:00;;;;;;;268.63;138.03;;;;;;;16.63;100.00;98653.41;1759812;81;21094;-83
2022/08/06 14:58:26;;;;;;;87.33;57.40;;;;;;;16.59;100.00;98651.60;1758910;80;20888;-85
2022/08/06 15:00:52;;;;;;;50.70;41.08;;;;;;;16.62;100.00;98644.95;1823155;78;20875;-83
2022/08/06 15:03:18;;;;;;;63.35;48.87;;;;;;;16.68;100.00;98654.44;1784939;78;20845;-85
2022/08/06 15:05:46;;;;;;;118.53;101.20;;;;;;;16.69;100.00;98654.16;1783505;80;21102;-83
2022/08/06 15:08:12;;;;;;;9.95;8.93;;;;;;;16.71;100.00;98652.48;1790292;80;21183;-83
2022/08/06 15:10:38;;;;;;;32.73;27.73;;;;;;;16.72;100.00;98658.20;1787390;79;21165;-82
2022/08/06 15:13:04;;;;;;;131.05;96.80;;;;;;;16.68;100.00;98658.55;1786008;80;21048;-85
2022/08/06 15:15:32;;;;;;;104.97;73.35;;;;;;;16.72;100.00;98664.48;1802624;78;21070;-84
2022/08/06 15:18:00;;;;;;;115.72;81.72;;;;;;;16.76;100.00;98660.05;1784959;80;21545;-83
2022/08/06 15:20:26;;;;;;;92.55;51.85;;;;;;;16.73;100.00;98668.84;1785473;80;22075;-85
2022/08/06 15:22:52;;;;;;;62.80;41.88;;;;;;;16.67;100.00;98670.05;1785730;80;20990;-84
2022/08/06 15:25:19;;;;;;;19.65;15.98;;;;;;;16.68;100.00;98668.93;1825305;78;21015;-85
2022/08/06 15:27:45;;;;;;;81.47;46.92;;;;;;;16.64;100.00;98667.91;1824563;78;21066;-85
2022/08/06 15:30:12;;;;;;;43.20;32.42;;;;;;;16.63;100.00;98670.39;1824474;78;21027;-83
2022/08/06 15:32:38;;;;;;;21.02;15.00;;;;;;;16.66;100.00;98665.66;1825152;77;21014;-85
2022/08/06 15:35:05;;;;;;;12.80;9.80;;;;;;;16.62;100.00;98662.73;1825089;77;21015;-84
2022/08/06 15:37:31;;;;;;;281.35;206.28;;;;;;;16.58;100.00;98660.37;1824309;78;20999;-85
2022/08/06 15:39:57;;;;;;;158.32;112.85;;;;;;;16.57;100.00;98662.83;1813270;78;22225;-83
2022/08/06 15:42:23;;;;;;;142.80;99.52;;;;;;;16.61;100.00;98661.13;1801774;78;20950;-83
2022/08/06 15:44:50;;;;;;;929.65;535.23;;;;;;;16.56;100.00;98659.84;1814353;78;21752;-85
2022/08/06 15:47:16;;;;;;;1200.45;722.50;;;;;;;16.50;100.00;98659.70;1829999;77;20999;-84
2022/08/06 15:49:42;;;;;;;935.43;509.75;;;;;;;16.49;100.00;98663.55;1827011;78;20943;-83
2022/08/06 15:52:08;;;;;;;447.00;277.10;;;;;;;16.49;100.00;98658.61;1824885;77;21026;-84
2022/08/06 15:54:34;;;;;;;921.45;587.85;;;;;;;16.49;100.00;98660.83;1825515;78;20869;-83
2022/08/06 15:57:01;;;;;;;1039.73;593.95;;;;;;;16.50;100.00;98665.73;1801582;78;21125;-85
2022/08/06 15:59:26;;;;;;;243.70;138.00;;;;;;;16.47;100.00;98660.84;1824614;77;20829;-85
2022/08/06 16:01:52;;;;;;;1191.35;613.72;;;;;;;16.49;100.00;98664.92;1823448;78;21704;-83
2022/08/06 16:04:18;;;;;;;320.45;236.22;;;;;;;16.47;100.00;98663.59;1808677;78;21470;-85
2022/08/06 16:06:44;;;;;;;465.68;352.27;;;;;;;16.38;100.00;98662.11;1753251;78;20872;-83
2022/08/06 16:09:10;;;;;;;241.93;163.82;;;;;;;16.36;100.00;98662.41;1823066;78;21252;-85
2022/08/06 16:11:36;;;;;;;125.30;84.50;;;;;;;16.39;100.00;98661.55;1823139;78;20906;-84
2022/08/06 16:14:02;;;;;;;757.12;490.98;;;;;;;16.41;100.00;98656.58;1753374;81;20891;-85
2022/08/06 16:16:29;;;;;;;509.07;334.25;;;;;;;16.38;100.00;98658.56;1761789;81;21462;-83
2022/08/06 16:18:55;;;;;;;355.60;219.25;;;;;;;16.40;100.00;98657.70;1763237;80;21061;-83
2022/08/06 16:21:21;;;;;;;300.90;181.50;;;;;;;16.41;100.00;98663.41;1762957;81;21174;-84
2022/08/06 16:23:47;;;;;;;482.23;305.52;;;;;;;16.44;100.00;98666.94;1752788;81;20917;-83
2022/08/06 16:26:15;;;;;;;425.20;250.80;;;;;;;16.39;100.00;98667.83;1772169;80;21132;-85
2022/08/06 16:28:41;;;;;;;631.70;359.65;;;;;;;16.38;100.00;98662.66;1773143;80;21050;-85
2022/08/06 16:31:07;;;;;;;449.18;269.18;;;;;;;16.36;100.00;98662.41;1770020;80;20943;-84
2022/08/06 16:33:33;;;;;;;991.77;523.20;;;;;;;16.37;100.00;98665.95;1744084;81;21276;-84
2022/08/06 16:35:59;;;;;;;1481.05;714.80;;;;;;;16.39;100.00;98665.09;1775421;80;21044;-84
2022/08/06 16:38:25;;;;;;;1407.70;630.73;;;;;;;16.38;100.00;98666.77;1770683;80;20874;-83
2022/08/06 16:40:51;;;;;;;616.70;395.97;;;;;;;16.36;100.00;98669.25;1820888;78;20814;-83
2022/08/06 16:43:17;;;;;;;184.85;113.08;;;;;;;16.33;100.00;98664.39;1825809;78;21026;-83
2022/08/06 16:45:43;;;;;;;278.10;152.65;;;;;;;16.37;100.00;98668.69;1810710;78;21057;-84
2022/08/06 16:48:09;;;;;;;250.00;141.90;;;;;;;16.40;100.00;98670.81;1823554;78;20903;-85
2022/08/06 16:50:37;;;;;;;656.30;431.80;;;;;;;16.41;100.00;98670.25;1818099;78;20955;-83
2022/08/06 16:53:04;;;;;;;607.17;480.45;;;;;;;16.36;100.00;98667.88;1824968;77;21425;-84
2022/08/06 16:55:30;;;;;;;244.07;207.10;;;;;;;16.34;100.00;98664.64;1819743;77;21045;-83
2022/08/06 16:57:56;;;;;;;196.50;165.03;;;;;;;16.34;100.00;98672.04;1829034;77;21117;-83
2022/08/06 17:00:22;;;;;;;53.75;47.08;;;;;;;16.35;100.00;98676.39;1802006;78;20849;-84
2022/08/06 17:02:48;;;;;;;32.17;25.37;;;;;;;16.34;100.00;98684.34;1825159;78;20865;-83
2022/08/06 17:05:16;;;;;;;35.45;29.52;;;;;;;16.29;100.00;98683.87;1808560;78;20875;-83
2022/08/06 17:07:44;;;;;;;54.13;42.33;;;;;;;16.15;100.00;98687.14;1800672;78;21123;-83
2022/08/06 17:10:14;;;;;;;84.23;68.23;;;;;;;16.18;100.00;98688.46;1822185;78;21908;-84
2022/08/06 17:12:40;;;;;;;353.40;261.55;;;;;;;16.13;100.00;98688.53;1824882;78;21067;-85
2022/08/06 17:15:06;;;;;;;711.98;535.08;;;;;;;16.10;100.00;98691.32;1806195;78;20919;-84
2022/08/06 17:17:34;;;;;;;478.75;331.05;;;;;;;16.14;100.00;98686.86;1829637;77;21070;-84